sensor_id;sensor_type;location;lat;lon;timestamp;P1;durP1;ratioP1;P2;durP2;ratioP2
9140;SDS011;46330;50.822;7.126;2022-08-19T00:01:50;20.27;;;17.92;;
9140;SDS011;46330;50.822;7.126;2022-08-19T00:04:20;20.70;;;17.05;;
9140;SDS011;46330;50.822;7.126;2022-08-19T00:06:51;19.33;;;17.23;;
9140;SDS011;46330;50.822;7.126;2022-08-19T00:09:20;22.13;;;17.90;;
9140;SDS011;46330;50.822;7.126;2022-08-19T00:11:51;19.52;;;17.38;;
9140;SDS011;46330;50.822;7.126;2022-08-19T00:14:22;21.77;;;17.23;;
9140;SDS011;46330;50.822;7.126;2022-08-19T00:16:51;19.38;;;16.77;;
9140;SDS011;46330;50.822;7.126;2022-08-19T00:19:21;22.33;;;16.73;;
9140;SDS011;46330;50.822;7.126;2022-08-19T00:21:50;18.92;;;16.38;;
9140;SDS011;46330;50.822;7.126;2022-08-19T00:24:18;20.50;;;16.75;;
9140;SDS011;46330;50.822;7.126;2022-08-19T00:26:46;21.38;;;16.80;;
9140;SDS011;46330;50.822;7.126;2022-08-19T00:29:16;19.90;;;16.25;;
9140;SDS011;46330;50.822;7.126;2022-08-19T00:31:45;17.70;;;15.77;;
9140;SDS011;46330;50.822;7.126;2022-08-19T00:34:16;19.70;;;15.68;;
9140;SDS011;46330;50.822;7.126;2022-08-19T00:36:44;19.00;;;15.85;;
9140;SDS011;46330;50.822;7.126;2022-08-19T00:39:13;22.65;;;16.55;;
9140;SDS011;46330;50.822;7.126;2022-08-19T00:41:42;19.02;;;16.95;;
9140;SDS011;46330;50.822;7.126;2022-08-19T00:44:14;21.40;;;16.92;;
9140;SDS011;46330;50.822;7.126;2022-08-19T00:46:52;19.48;;;16.23;;
9140;SDS011;46330;50.822;7.126;2022-08-19T00:49:25;21.90;;;16.77;;
9140;SDS011;46330;50.822;7.126;2022-08-19T00:51:58;19.20;;;16.30;;
9140;SDS011;46330;50.822;7.126;2022-08-19T00:54:30;20.67;;;16.08;;
9140;SDS011;46330;50.822;7.126;2022-08-19T00:56:59;21.17;;;16.75;;
9140;SDS011;46330;50.822;7.126;2022-08-19T00:59:32;21.08;;;17.55;;
9140;SDS011;46330;50.822;7.126;2022-08-19T01:02:24;20.50;;;17.35;;
9140;SDS011;46330;50.822;7.126;2022-08-19T01:04:54;20.98;;;17.98;;
9140;SDS011;46330;50.822;7.126;2022-08-19T01:07:22;20.55;;;16.95;;
9140;SDS011;46330;50.822;7.126;2022-08-19T01:09:51;21.13;;;17.38;;
9140;SDS011;46330;50.822;7.126;2022-08-19T01:12:19;21.23;;;17.13;;
9140;SDS011;46330;50.822;7.126;2022-08-19T01:14:49;20.80;;;17.30;;
9140;SDS011;46330;50.822;7.126;2022-08-19T01:17:18;20.45;;;16.63;;
9140;SDS011;46330;50.822;7.126;2022-08-19T01:19:47;19.60;;;17.17;;
9140;SDS011;46330;50.822;7.126;2022-08-19T01:22:16;22.85;;;17.00;;
9140;SDS011;46330;50.822;7.126;2022-08-19T01:24:58;20.45;;;17.08;;
9140;SDS011;46330;50.822;7.126;2022-08-19T01:27:26;19.20;;;17.02;;
9140;SDS011;46330;50.822;7.126;2022-08-19T01:30:09;18.98;;;16.75;;
9140;SDS011;46330;50.822;7.126;2022-08-19T01:32:41;21.05;;;18.20;;
9140;SDS011;46330;50.822;7.126;2022-08-19T01:35:10;19.58;;;17.48;;
9140;SDS011;46330;50.822;7.126;2022-08-19T01:37:42;21.52;;;18.23;;
9140;SDS011;46330;50.822;7.126;2022-08-19T01:40:12;20.33;;;17.92;;
9140;SDS011;46330;50.822;7.126;2022-08-19T01:42:42;21.23;;;18.92;;
9140;SDS011;46330;50.822;7.126;2022-08-19T01:45:10;20.88;;;18.73;;
9140;SDS011;46330;50.822;7.126;2022-08-19T01:47:38;23.23;;;19.92;;
9140;SDS011;46330;50.822;7.126;2022-08-19T01:50:07;22.13;;;18.77;;
9140;SDS011;46330;50.822;7.126;2022-08-19T01:52:36;21.40;;;18.83;;
9140;SDS011;46330;50.822;7.126;2022-08-19T01:55:06;25.50;;;19.42;;
9140;SDS011;46330;50.822;7.126;2022-08-19T01:57:38;23.08;;;19.40;;
9140;SDS011;46330;50.822;7.126;2022-08-19T02:00:10;23.38;;;20.25;;
9140;SDS011;46330;50.822;7.126;2022-08-19T02:02:41;24.48;;;20.15;;
9140;SDS011;46330;50.822;7.126;2022-08-19T02:05:10;25.60;;;20.50;;
9140;SDS011;46330;50.822;7.126;2022-08-19T02:07:39;24.90;;;20.75;;
9140;SDS011;46330;50.822;7.126;2022-08-19T02:10:10;24.88;;;20.70;;
9140;SDS011;46330;50.822;7.126;2022-08-19T02:12:43;25.23;;;20.35;;
9140;SDS011;46330;50.822;7.126;2022-08-19T02:15:12;24.98;;;20.40;;
9140;SDS011;46330;50.822;7.126;2022-08-19T02:17:41;23.35;;;20.30;;
9140;SDS011;46330;50.822;7.126;2022-08-19T02:20:09;22.02;;;19.65;;
9140;SDS011;46330;50.822;7.126;2022-08-19T02:22:39;24.17;;;19.83;;
9140;SDS011;46330;50.822;7.126;2022-08-19T02:25:08;21.75;;;19.42;;
9140;SDS011;46330;50.822;7.126;2022-08-19T02:27:37;24.05;;;19.65;;
9140;SDS011;46330;50.822;7.126;2022-08-19T02:30:08;22.48;;;20.05;;
9140;SDS011;46330;50.822;7.126;2022-08-19T02:32:40;23.23;;;19.20;;
9140;SDS011;46330;50.822;7.126;2022-08-19T02:35:20;23.40;;;20.13;;
9140;SDS011;46330;50.822;7.126;2022-08-19T02:37:48;23.13;;;19.50;;
9140;SDS011;46330;50.822;7.126;2022-08-19T02:40:34;25.60;;;20.23;;
9140;SDS011;46330;50.822;7.126;2022-08-19T02:43:02;22.85;;;20.45;;
9140;SDS011;46330;50.822;7.126;2022-08-19T02:45:34;25.55;;;20.23;;
9140;SDS011;46330;50.822;7.126;2022-08-19T02:48:07;23.50;;;20.45;;
9140;SDS011;46330;50.822;7.126;2022-08-19T02:50:47;24.02;;;20.00;;
9140;SDS011;46330;50.822;7.126;2022-08-19T02:53:19;24.25;;;19.90;;
9140;SDS011;46330;50.822;7.126;2022-08-19T02:55:50;27.60;;;20.65;;
9140;SDS011;46330;50.822;7.126;2022-08-19T02:58:19;23.45;;;20.15;;
9140;SDS011;46330;50.822;7.126;2022-08-19T03:00:52;25.17;;;21.13;;
9140;SDS011;46330;50.822;7.126;2022-08-19T03:03:22;25.15;;;20.90;;
9140;SDS011;46330;50.822;7.126;2022-08-19T03:05:50;22.90;;;20.48;;
9140;SDS011;46330;50.822;7.126;2022-08-19T03:08:22;24.67;;;21.15;;
9140;SDS011;46330;50.822;7.126;2022-08-19T03:10:51;26.58;;;21.35;;
9140;SDS011;46330;50.822;7.126;2022-08-19T03:13:21;22.73;;;20.05;;
9140;SDS011;46330;50.822;7.126;2022-08-19T03:15:51;24.02;;;20.88;;
9140;SDS011;46330;50.822;7.126;2022-08-19T03:18:19;25.27;;;20.77;;
9140;SDS011;46330;50.822;7.126;2022-08-19T03:20:49;23.45;;;20.05;;
9140;SDS011;46330;50.822;7.126;2022-08-19T03:23:20;21.50;;;19.20;;
9140;SDS011;46330;50.822;7.126;2022-08-19T03:25:50;22.85;;;20.13;;
9140;SDS011;46330;50.822;7.126;2022-08-19T03:28:29;26.73;;;21.00;;
9140;SDS011;46330;50.822;7.126;2022-08-19T03:30:59;27.10;;;22.33;;
9140;SDS011;46330;50.822;7.126;2022-08-19T03:33:29;25.88;;;21.02;;
9140;SDS011;46330;50.822;7.126;2022-08-19T03:36:04;27.20;;;21.10;;
9140;SDS011;46330;50.822;7.126;2022-08-19T03:38:35;24.38;;;20.75;;
9140;SDS011;46330;50.822;7.126;2022-08-19T03:41:05;25.23;;;20.85;;
9140;SDS011;46330;50.822;7.126;2022-08-19T03:43:35;23.40;;;20.65;;
9140;SDS011;46330;50.822;7.126;2022-08-19T03:46:06;23.63;;;20.70;;
9140;SDS011;46330;50.822;7.126;2022-08-19T03:48:36;26.42;;;21.85;;
9140;SDS011;46330;50.822;7.126;2022-08-19T03:51:05;23.45;;;20.95;;
9140;SDS011;46330;50.822;7.126;2022-08-19T03:53:35;24.83;;;21.52;;
9140;SDS011;46330;50.822;7.126;2022-08-19T03:56:03;23.02;;;20.00;;
9140;SDS011;46330;50.822;7.126;2022-08-19T03:58:31;22.90;;;20.25;;
9140;SDS011;46330;50.822;7.126;2022-08-19T04:00:58;26.10;;;21.00;;
9140;SDS011;46330;50.822;7.126;2022-08-19T04:03:28;23.83;;;21.17;;
9140;SDS011;46330;50.822;7.126;2022-08-19T04:05:56;24.98;;;20.65;;
9140;SDS011;46330;50.822;7.126;2022-08-19T04:08:23;25.63;;;20.98;;
9140;SDS011;46330;50.822;7.126;2022-08-19T04:10:52;22.85;;;20.35;;
9140;SDS011;46330;50.822;7.126;2022-08-19T04:13:20;25.67;;;21.58;;
9140;SDS011;46330;50.822;7.126;2022-08-19T04:15:48;24.85;;;22.02;;
9140;SDS011;46330;50.822;7.126;2022-08-19T04:18:16;24.90;;;21.75;;
9140;SDS011;46330;50.822;7.126;2022-08-19T04:20:46;23.63;;;21.10;;
9140;SDS011;46330;50.822;7.126;2022-08-19T04:23:14;25.30;;;22.02;;
9140;SDS011;46330;50.822;7.126;2022-08-19T04:25:43;26.38;;;22.13;;
9140;SDS011;46330;50.822;7.126;2022-08-19T04:28:12;27.67;;;21.25;;
9140;SDS011;46330;50.822;7.126;2022-08-19T04:30:41;34.90;;;27.67;;
9140;SDS011;46330;50.822;7.126;2022-08-19T04:33:11;29.45;;;22.92;;
9140;SDS011;46330;50.822;7.126;2022-08-19T04:35:46;26.60;;;21.70;;
9140;SDS011;46330;50.822;7.126;2022-08-19T04:38:15;27.58;;;22.00;;
9140;SDS011;46330;50.822;7.126;2022-08-19T04:40:45;25.45;;;21.95;;
9140;SDS011;46330;50.822;7.126;2022-08-19T04:43:32;25.88;;;20.88;;
9140;SDS011;46330;50.822;7.126;2022-08-19T04:46:03;26.25;;;21.88;;
9140;SDS011;46330;50.822;7.126;2022-08-19T04:48:32;25.42;;;21.40;;
9140;SDS011;46330;50.822;7.126;2022-08-19T04:51:11;24.30;;;21.35;;
9140;SDS011;46330;50.822;7.126;2022-08-19T04:53:40;27.25;;;21.90;;
9140;SDS011;46330;50.822;7.126;2022-08-19T04:56:10;26.20;;;21.80;;
9140;SDS011;46330;50.822;7.126;2022-08-19T04:58:40;24.77;;;21.50;;
9140;SDS011;46330;50.822;7.126;2022-08-19T05:01:11;24.48;;;21.85;;
9140;SDS011;46330;50.822;7.126;2022-08-19T05:03:40;26.67;;;21.77;;
9140;SDS011;46330;50.822;7.126;2022-08-19T05:06:10;27.92;;;20.98;;
9140;SDS011;46330;50.822;7.126;2022-08-19T05:08:41;29.73;;;21.35;;
9140;SDS011;46330;50.822;7.126;2022-08-19T05:11:11;28.08;;;20.85;;
9140;SDS011;46330;50.822;7.126;2022-08-19T05:13:41;26.65;;;21.00;;
9140;SDS011;46330;50.822;7.126;2022-08-19T05:16:10;23.70;;;20.58;;
9140;SDS011;46330;50.822;7.126;2022-08-19T05:18:39;26.83;;;20.20;;
9140;SDS011;46330;50.822;7.126;2022-08-19T05:21:27;30.25;;;20.02;;
9140;SDS011;46330;50.822;7.126;2022-08-19T05:24:12;26.73;;;20.25;;
9140;SDS011;46330;50.822;7.126;2022-08-19T05:26:41;28.67;;;19.98;;
9140;SDS011;46330;50.822;7.126;2022-08-19T05:29:13;27.00;;;19.83;;
9140;SDS011;46330;50.822;7.126;2022-08-19T05:31:42;23.02;;;18.67;;
9140;SDS011;46330;50.822;7.126;2022-08-19T05:34:10;25.08;;;19.30;;
9140;SDS011;46330;50.822;7.126;2022-08-19T05:36:47;22.80;;;18.75;;
9140;SDS011;46330;50.822;7.126;2022-08-19T05:39:18;27.83;;;20.00;;
9140;SDS011;46330;50.822;7.126;2022-08-19T05:41:48;25.50;;;19.30;;
9140;SDS011;46330;50.822;7.126;2022-08-19T05:44:18;28.02;;;19.60;;
9140;SDS011;46330;50.822;7.126;2022-08-19T05:46:48;27.45;;;19.25;;
9140;SDS011;46330;50.822;7.126;2022-08-19T05:49:19;27.45;;;19.80;;
9140;SDS011;46330;50.822;7.126;2022-08-19T05:51:50;28.30;;;20.30;;
9140;SDS011;46330;50.822;7.126;2022-08-19T05:54:18;28.67;;;21.50;;
9140;SDS011;46330;50.822;7.126;2022-08-19T05:56:46;30.70;;;21.25;;
9140;SDS011;46330;50.822;7.126;2022-08-19T05:59:15;30.05;;;21.52;;
9140;SDS011;46330;50.822;7.126;2022-08-19T06:01:45;26.55;;;21.45;;
9140;SDS011;46330;50.822;7.126;2022-08-19T06:04:16;30.73;;;22.05;;
9140;SDS011;46330;50.822;7.126;2022-08-19T06:06:45;30.15;;;21.95;;
9140;SDS011;46330;50.822;7.126;2022-08-19T06:09:15;31.33;;;23.42;;
9140;SDS011;46330;50.822;7.126;2022-08-19T06:11:44;28.83;;;23.23;;
9140;SDS011;46330;50.822;7.126;2022-08-19T06:14:14;31.10;;;23.13;;
9140;SDS011;46330;50.822;7.126;2022-08-19T06:16:53;31.15;;;23.13;;
9140;SDS011;46330;50.822;7.126;2022-08-19T06:19:21;31.48;;;23.55;;
9140;SDS011;46330;50.822;7.126;2022-08-19T06:21:51;36.55;;;24.52;;
9140;SDS011;46330;50.822;7.126;2022-08-19T06:24:22;28.13;;;23.02;;
9140;SDS011;46330;50.822;7.126;2022-08-19T06:26:52;33.22;;;24.48;;
9140;SDS011;46330;50.822;7.126;2022-08-19T06:29:27;30.95;;;24.15;;
9140;SDS011;46330;50.822;7.126;2022-08-19T06:31:57;32.78;;;25.20;;
9140;SDS011;46330;50.822;7.126;2022-08-19T06:34:27;29.67;;;24.02;;
9140;SDS011;46330;50.822;7.126;2022-08-19T06:36:57;30.10;;;24.23;;
9140;SDS011;46330;50.822;7.126;2022-08-19T06:39:29;35.03;;;24.92;;
9140;SDS011;46330;50.822;7.126;2022-08-19T06:42:01;32.28;;;24.70;;
9140;SDS011;46330;50.822;7.126;2022-08-19T06:44:35;29.90;;;23.20;;
9140;SDS011;46330;50.822;7.126;2022-08-19T06:47:09;32.83;;;24.20;;
9140;SDS011;46330;50.822;7.126;2022-08-19T06:49:48;28.13;;;22.80;;
9140;SDS011;46330;50.822;7.126;2022-08-19T06:52:16;34.00;;;23.92;;
9140;SDS011;46330;50.822;7.126;2022-08-19T06:54:45;30.90;;;23.83;;
9140;SDS011;46330;50.822;7.126;2022-08-19T06:57:22;29.58;;;24.52;;
9140;SDS011;46330;50.822;7.126;2022-08-19T06:59:51;31.95;;;24.73;;
9140;SDS011;46330;50.822;7.126;2022-08-19T07:02:19;31.52;;;23.70;;
9140;SDS011;46330;50.822;7.126;2022-08-19T07:04:52;33.90;;;24.42;;
9140;SDS011;46330;50.822;7.126;2022-08-19T07:07:22;28.45;;;23.00;;
9140;SDS011;46330;50.822;7.126;2022-08-19T07:09:51;31.50;;;23.48;;
9140;SDS011;46330;50.822;7.126;2022-08-19T07:12:26;30.15;;;23.35;;
9140;SDS011;46330;50.822;7.126;2022-08-19T07:14:57;28.73;;;23.60;;
9140;SDS011;46330;50.822;7.126;2022-08-19T07:17:26;32.83;;;25.17;;
9140;SDS011;46330;50.822;7.126;2022-08-19T07:19:56;34.35;;;22.75;;
9140;SDS011;46330;50.822;7.126;2022-08-19T07:22:31;30.65;;;22.73;;
9140;SDS011;46330;50.822;7.126;2022-08-19T07:25:01;29.15;;;22.35;;
9140;SDS011;46330;50.822;7.126;2022-08-19T07:27:30;29.23;;;22.08;;
9140;SDS011;46330;50.822;7.126;2022-08-19T07:29:59;28.75;;;22.05;;
9140;SDS011;46330;50.822;7.126;2022-08-19T07:32:27;29.35;;;22.00;;
9140;SDS011;46330;50.822;7.126;2022-08-19T07:34:57;31.20;;;22.40;;
9140;SDS011;46330;50.822;7.126;2022-08-19T07:37:26;30.08;;;20.55;;
9140;SDS011;46330;50.822;7.126;2022-08-19T07:39:58;25.65;;;20.10;;
9140;SDS011;46330;50.822;7.126;2022-08-19T07:42:28;26.70;;;18.95;;
9140;SDS011;46330;50.822;7.126;2022-08-19T07:44:56;27.92;;;19.58;;
9140;SDS011;46330;50.822;7.126;2022-08-19T07:47:25;25.20;;;19.10;;
9140;SDS011;46330;50.822;7.126;2022-08-19T07:50:14;28.20;;;20.70;;
9140;SDS011;46330;50.822;7.126;2022-08-19T07:52:44;24.88;;;18.08;;
9140;SDS011;46330;50.822;7.126;2022-08-19T07:55:15;22.92;;;17.92;;
9140;SDS011;46330;50.822;7.126;2022-08-19T07:58:06;24.65;;;18.15;;
9140;SDS011;46330;50.822;7.126;2022-08-19T08:00:35;23.77;;;19.05;;
9140;SDS011;46330;50.822;7.126;2022-08-19T08:03:03;30.98;;;18.60;;
9140;SDS011;46330;50.822;7.126;2022-08-19T08:05:31;25.50;;;18.45;;
9140;SDS011;46330;50.822;7.126;2022-08-19T08:08:17;27.85;;;16.73;;
9140;SDS011;46330;50.822;7.126;2022-08-19T08:11:14;27.98;;;16.92;;
9140;SDS011;46330;50.822;7.126;2022-08-19T08:13:47;28.92;;;16.63;;
9140;SDS011;46330;50.822;7.126;2022-08-19T08:16:30;23.75;;;14.52;;
9140;SDS011;46330;50.822;7.126;2022-08-19T08:19:05;17.95;;;13.02;;
9140;SDS011;46330;50.822;7.126;2022-08-19T08:21:48;25.17;;;14.02;;
9140;SDS011;46330;50.822;7.126;2022-08-19T08:24:17;16.67;;;13.20;;
9140;SDS011;46330;50.822;7.126;2022-08-19T08:26:46;21.00;;;13.98;;
9140;SDS011;46330;50.822;7.126;2022-08-19T08:29:23;17.80;;;12.65;;
9140;SDS011;46330;50.822;7.126;2022-08-19T08:32:00;17.65;;;12.95;;
9140;SDS011;46330;50.822;7.126;2022-08-19T08:34:28;20.40;;;13.05;;
9140;SDS011;46330;50.822;7.126;2022-08-19T08:36:57;15.02;;;11.45;;
9140;SDS011;46330;50.822;7.126;2022-08-19T08:39:24;16.92;;;11.65;;
9140;SDS011;46330;50.822;7.126;2022-08-19T08:41:53;15.85;;;11.65;;
9140;SDS011;46330;50.822;7.126;2022-08-19T08:44:54;16.20;;;11.65;;
9140;SDS011;46330;50.822;7.126;2022-08-19T08:47:26;20.40;;;10.90;;
9140;SDS011;46330;50.822;7.126;2022-08-19T08:49:59;20.33;;;11.80;;
9140;SDS011;46330;50.822;7.126;2022-08-19T08:52:32;15.15;;;9.80;;
9140;SDS011;46330;50.822;7.126;2022-08-19T08:55:06;15.05;;;8.90;;
9140;SDS011;46330;50.822;7.126;2022-08-19T08:57:39;13.40;;;8.68;;
9140;SDS011;46330;50.822;7.126;2022-08-19T09:00:19;14.48;;;9.65;;
9140;SDS011;46330;50.822;7.126;2022-08-19T09:02:50;19.83;;;10.87;;
9140;SDS011;46330;50.822;7.126;2022-08-19T09:05:20;14.52;;;9.10;;
9140;SDS011;46330;50.822;7.126;2022-08-19T09:07:53;15.52;;;11.10;;
9140;SDS011;46330;50.822;7.126;2022-08-19T09:10:29;18.42;;;12.30;;
9140;SDS011;46330;50.822;7.126;2022-08-19T09:13:12;17.50;;;11.43;;
9140;SDS011;46330;50.822;7.126;2022-08-19T09:15:49;17.13;;;11.75;;
9140;SDS011;46330;50.822;7.126;2022-08-19T09:18:22;19.75;;;13.52;;
9140;SDS011;46330;50.822;7.126;2022-08-19T09:20:55;19.83;;;13.10;;
9140;SDS011;46330;50.822;7.126;2022-08-19T09:23:23;15.70;;;11.73;;
9140;SDS011;46330;50.822;7.126;2022-08-19T09:25:52;16.55;;;11.80;;
9140;SDS011;46330;50.822;7.126;2022-08-19T09:28:20;16.73;;;12.32;;
9140;SDS011;46330;50.822;7.126;2022-08-19T09:30:54;16.15;;;11.88;;
9140;SDS011;46330;50.822;7.126;2022-08-19T09:33:22;16.95;;;13.20;;
9140;SDS011;46330;50.822;7.126;2022-08-19T09:35:50;17.13;;;14.27;;
9140;SDS011;46330;50.822;7.126;2022-08-19T09:38:19;18.48;;;13.80;;
9140;SDS011;46330;50.822;7.126;2022-08-19T09:40:47;22.45;;;14.68;;
9140;SDS011;46330;50.822;7.126;2022-08-19T09:43:16;17.55;;;13.15;;
9140;SDS011;46330;50.822;7.126;2022-08-19T09:46:00;18.85;;;14.75;;
9140;SDS011;46330;50.822;7.126;2022-08-19T09:48:28;17.17;;;13.63;;
9140;SDS011;46330;50.822;7.126;2022-08-19T09:51:01;18.05;;;13.48;;
9140;SDS011;46330;50.822;7.126;2022-08-19T09:55:59;18.35;;;14.15;;
9140;SDS011;46330;50.822;7.126;2022-08-19T09:58:29;16.73;;;12.07;;
9140;SDS011;46330;50.822;7.126;2022-08-19T10:00:57;20.83;;;12.85;;
9140;SDS011;46330;50.822;7.126;2022-08-19T10:03:29;19.60;;;14.15;;
9140;SDS011;46330;50.822;7.126;2022-08-19T10:05:58;19.80;;;15.18;;
9140;SDS011;46330;50.822;7.126;2022-08-19T10:08:29;25.17;;;14.20;;
9140;SDS011;46330;50.822;7.126;2022-08-19T10:11:00;21.10;;;13.85;;
9140;SDS011;46330;50.822;7.126;2022-08-19T10:13:48;23.17;;;15.70;;
9140;SDS011;46330;50.822;7.126;2022-08-19T10:16:17;18.40;;;14.82;;
9140;SDS011;46330;50.822;7.126;2022-08-19T10:18:53;21.98;;;16.58;;
9140;SDS011;46330;50.822;7.126;2022-08-19T10:21:25;26.30;;;16.45;;
9140;SDS011;46330;50.822;7.126;2022-08-19T10:23:58;21.60;;;14.63;;
9140;SDS011;46330;50.822;7.126;2022-08-19T10:26:32;25.60;;;16.73;;
9140;SDS011;46330;50.822;7.126;2022-08-19T10:29:02;20.33;;;16.40;;
9140;SDS011;46330;50.822;7.126;2022-08-19T10:31:34;20.83;;;16.23;;
9140;SDS011;46330;50.822;7.126;2022-08-19T10:34:24;18.33;;;14.50;;
9140;SDS011;46330;50.822;7.126;2022-08-19T10:36:54;18.23;;;13.95;;
9140;SDS011;46330;50.822;7.126;2022-08-19T10:39:27;17.60;;;13.73;;
9140;SDS011;46330;50.822;7.126;2022-08-19T10:41:58;22.50;;;15.15;;
9140;SDS011;46330;50.822;7.126;2022-08-19T10:44:26;17.70;;;13.60;;
9140;SDS011;46330;50.822;7.126;2022-08-19T10:46:58;17.02;;;11.98;;
9140;SDS011;46330;50.822;7.126;2022-08-19T10:49:28;14.10;;;12.30;;
9140;SDS011;46330;50.822;7.126;2022-08-19T10:51:56;13.90;;;11.40;;
9140;SDS011;46330;50.822;7.126;2022-08-19T10:54:45;12.88;;;10.07;;
9140;SDS011;46330;50.822;7.126;2022-08-19T10:57:34;15.85;;;10.43;;
9140;SDS011;46330;50.822;7.126;2022-08-19T11:00:22;12.65;;;8.77;;
9140;SDS011;46330;50.822;7.126;2022-08-19T11:02:52;13.93;;;9.73;;
9140;SDS011;46330;50.822;7.126;2022-08-19T11:05:21;13.00;;;10.00;;
9140;SDS011;46330;50.822;7.126;2022-08-19T11:07:49;12.93;;;9.65;;
9140;SDS011;46330;50.822;7.126;2022-08-19T11:10:18;11.40;;;8.23;;
9140;SDS011;46330;50.822;7.126;2022-08-19T11:12:48;11.15;;;8.82;;
9140;SDS011;46330;50.822;7.126;2022-08-19T11:15:19;16.02;;;8.88;;
9140;SDS011;46330;50.822;7.126;2022-08-19T11:17:47;12.40;;;10.02;;
9140;SDS011;46330;50.822;7.126;2022-08-19T11:20:15;17.85;;;8.90;;
9140;SDS011;46330;50.822;7.126;2022-08-19T11:22:44;11.00;;;8.75;;
9140;SDS011;46330;50.822;7.126;2022-08-19T11:25:13;12.88;;;8.30;;
9140;SDS011;46330;50.822;7.126;2022-08-19T11:27:42;11.25;;;8.48;;
9140;SDS011;46330;50.822;7.126;2022-08-19T11:30:11;10.48;;;8.63;;
9140;SDS011;46330;50.822;7.126;2022-08-19T11:32:41;10.38;;;6.95;;
9140;SDS011;46330;50.822;7.126;2022-08-19T11:35:14;8.83;;;7.50;;
9140;SDS011;46330;50.822;7.126;2022-08-19T11:37:44;10.27;;;8.20;;
9140;SDS011;46330;50.822;7.126;2022-08-19T11:40:12;10.45;;;8.50;;
9140;SDS011;46330;50.822;7.126;2022-08-19T11:42:40;16.60;;;8.38;;
9140;SDS011;46330;50.822;7.126;2022-08-19T11:45:24;16.45;;;6.80;;
9140;SDS011;46330;50.822;7.126;2022-08-19T11:47:54;10.35;;;7.20;;
9140;SDS011;46330;50.822;7.126;2022-08-19T11:50:22;14.20;;;7.03;;
9140;SDS011;46330;50.822;7.126;2022-08-19T11:52:54;13.73;;;7.35;;
9140;SDS011;46330;50.822;7.126;2022-08-19T11:55:22;10.98;;;7.15;;
9140;SDS011;46330;50.822;7.126;2022-08-19T11:57:50;12.73;;;8.15;;
9140;SDS011;46330;50.822;7.126;2022-08-19T12:00:19;11.80;;;7.50;;
9140;SDS011;46330;50.822;7.126;2022-08-19T12:02:46;12.65;;;7.35;;
9140;SDS011;46330;50.822;7.126;2022-08-19T12:05:14;12.52;;;7.40;;
9140;SDS011;46330;50.822;7.126;2022-08-19T12:07:42;9.93;;;6.90;;
9140;SDS011;46330;50.822;7.126;2022-08-19T12:10:12;9.95;;;7.00;;
9140;SDS011;46330;50.822;7.126;2022-08-19T12:12:43;9.40;;;6.57;;
9140;SDS011;46330;50.822;7.126;2022-08-19T12:15:20;11.30;;;7.18;;
9140;SDS011;46330;50.822;7.126;2022-08-19T12:17:47;7.95;;;6.60;;
9140;SDS011;46330;50.822;7.126;2022-08-19T12:20:15;9.43;;;6.20;;
9140;SDS011;46330;50.822;7.126;2022-08-19T12:22:43;10.80;;;6.22;;
9140;SDS011;46330;50.822;7.126;2022-08-19T12:25:12;12.07;;;6.90;;
9140;SDS011;46330;50.822;7.126;2022-08-19T12:27:40;10.10;;;6.88;;
9140;SDS011;46330;50.822;7.126;2022-08-19T12:30:18;9.82;;;6.20;;
9140;SDS011;46330;50.822;7.126;2022-08-19T12:32:45;12.02;;;5.78;;
9140;SDS011;46330;50.822;7.126;2022-08-19T12:35:13;10.35;;;5.05;;
9140;SDS011;46330;50.822;7.126;2022-08-19T12:37:41;7.60;;;4.63;;
9140;SDS011;46330;50.822;7.126;2022-08-19T12:40:23;8.25;;;4.97;;
9140;SDS011;46330;50.822;7.126;2022-08-19T12:42:52;10.75;;;5.03;;
9140;SDS011;46330;50.822;7.126;2022-08-19T12:45:20;8.98;;;6.13;;
9140;SDS011;46330;50.822;7.126;2022-08-19T12:47:48;13.50;;;6.47;;
9140;SDS011;46330;50.822;7.126;2022-08-19T12:50:20;9.00;;;5.78;;
9140;SDS011;46330;50.822;7.126;2022-08-19T12:52:48;7.78;;;5.57;;
9140;SDS011;46330;50.822;7.126;2022-08-19T12:55:16;10.95;;;5.75;;
9140;SDS011;46330;50.822;7.126;2022-08-19T12:57:46;8.50;;;5.25;;
9140;SDS011;46330;50.822;7.126;2022-08-19T13:00:15;7.63;;;5.20;;
9140;SDS011;46330;50.822;7.126;2022-08-19T13:02:48;9.77;;;5.28;;
9140;SDS011;46330;50.822;7.126;2022-08-19T13:05:19;14.05;;;5.00;;
9140;SDS011;46330;50.822;7.126;2022-08-19T13:07:49;6.65;;;5.28;;
9140;SDS011;46330;50.822;7.126;2022-08-19T13:10:19;6.63;;;5.82;;
9140;SDS011;46330;50.822;7.126;2022-08-19T13:12:50;11.63;;;5.60;;
9140;SDS011;46330;50.822;7.126;2022-08-19T13:15:20;9.27;;;4.90;;
9140;SDS011;46330;50.822;7.126;2022-08-19T13:17:50;6.35;;;3.95;;
9140;SDS011;46330;50.822;7.126;2022-08-19T13:20:22;7.07;;;4.00;;
9140;SDS011;46330;50.822;7.126;2022-08-19T13:22:50;5.47;;;3.83;;
9140;SDS011;46330;50.822;7.126;2022-08-19T13:25:18;6.63;;;4.18;;
9140;SDS011;46330;50.822;7.126;2022-08-19T13:27:49;5.57;;;4.00;;
9140;SDS011;46330;50.822;7.126;2022-08-19T13:30:18;7.97;;;5.10;;
9140;SDS011;46330;50.822;7.126;2022-08-19T13:33:05;6.63;;;4.10;;
9140;SDS011;46330;50.822;7.126;2022-08-19T13:35:43;6.32;;;4.18;;
9140;SDS011;46330;50.822;7.126;2022-08-19T13:38:14;7.05;;;4.25;;
9140;SDS011;46330;50.822;7.126;2022-08-19T13:40:43;9.25;;;4.90;;
9140;SDS011;46330;50.822;7.126;2022-08-19T13:43:14;7.85;;;4.90;;
9140;SDS011;46330;50.822;7.126;2022-08-19T13:45:48;8.57;;;5.55;;
9140;SDS011;46330;50.822;7.126;2022-08-19T13:48:21;11.95;;;5.57;;
9140;SDS011;46330;50.822;7.126;2022-08-19T13:50:51;9.32;;;6.30;;
9140;SDS011;46330;50.822;7.126;2022-08-19T13:53:20;9.55;;;6.38;;
9140;SDS011;46330;50.822;7.126;2022-08-19T13:55:48;8.75;;;5.88;;
9140;SDS011;46330;50.822;7.126;2022-08-19T13:58:18;8.00;;;5.78;;
9140;SDS011;46330;50.822;7.126;2022-08-19T14:00:46;7.63;;;5.15;;
9140;SDS011;46330;50.822;7.126;2022-08-19T14:03:14;8.63;;;5.70;;
9140;SDS011;46330;50.822;7.126;2022-08-19T14:05:42;6.32;;;4.63;;
9140;SDS011;46330;50.822;7.126;2022-08-19T14:08:10;7.97;;;4.80;;
9140;SDS011;46330;50.822;7.126;2022-08-19T14:10:40;8.77;;;4.80;;
9140;SDS011;46330;50.822;7.126;2022-08-19T14:13:12;7.57;;;4.60;;
9140;SDS011;46330;50.822;7.126;2022-08-19T14:15:43;8.18;;;4.88;;
9140;SDS011;46330;50.822;7.126;2022-08-19T14:18:11;12.55;;;5.20;;
9140;SDS011;46330;50.822;7.126;2022-08-19T14:20:39;7.63;;;5.00;;
9140;SDS011;46330;50.822;7.126;2022-08-19T14:23:07;9.18;;;5.55;;
9140;SDS011;46330;50.822;7.126;2022-08-19T14:25:36;7.78;;;5.30;;
9140;SDS011;46330;50.822;7.126;2022-08-19T14:28:04;9.77;;;6.40;;
9140;SDS011;46330;50.822;7.126;2022-08-19T14:30:33;11.80;;;6.18;;
9140;SDS011;46330;50.822;7.126;2022-08-19T14:33:05;10.95;;;5.40;;
9140;SDS011;46330;50.822;7.126;2022-08-19T14:35:35;9.98;;;5.47;;
9140;SDS011;46330;50.822;7.126;2022-08-19T14:38:03;10.90;;;5.22;;
9140;SDS011;46330;50.822;7.126;2022-08-19T14:40:32;7.93;;;5.18;;
9140;SDS011;46330;50.822;7.126;2022-08-19T14:43:02;9.10;;;5.38;;
9140;SDS011;46330;50.822;7.126;2022-08-19T14:45:31;10.82;;;5.70;;
9140;SDS011;46330;50.822;7.126;2022-08-19T14:48:02;10.32;;;6.05;;
9140;SDS011;46330;50.822;7.126;2022-08-19T14:50:32;8.35;;;5.30;;
9140;SDS011;46330;50.822;7.126;2022-08-19T14:53:01;6.55;;;5.10;;
9140;SDS011;46330;50.822;7.126;2022-08-19T14:55:40;11.07;;;4.47;;
9140;SDS011;46330;50.822;7.126;2022-08-19T14:58:09;8.30;;;4.55;;
9140;SDS011;46330;50.822;7.126;2022-08-19T15:00:56;9.25;;;5.00;;
9140;SDS011;46330;50.822;7.126;2022-08-19T15:03:25;9.63;;;5.50;;
9140;SDS011;46330;50.822;7.126;2022-08-19T15:05:55;8.93;;;5.03;;
9140;SDS011;46330;50.822;7.126;2022-08-19T15:08:24;10.82;;;5.28;;